Aviation Digital Data Service (ADDS)

Output produced by TAFs form (1923 UTC 23 June 2018)
found at http://aviationweather.gov/adds/tafs/
 
KPTW 231854Z AUTO 00000KT 5SM BR OVC008 18/18 A2985 RMK AO2 RAE00 SLP104 P0000 T01830178
KRDG 231854Z 18004KT 10SM OVC011 21/18 A2982 RMK AO2 SLP100 T02060183
KRDG 231737Z 2318/2418 08004KT P6SM VCSH OVC007 
     FM232000 08003KT P6SM BKN012 
     FM232100 09003KT P6SM BKN025 
     TEMPO 2321/2323 5SM -TSRA BKN030CB 
     FM232300 VRB02KT P6SM BKN035 
     TEMPO 2323/2403 5SM -TSRA BKN035CB 
     FM240300 VRB03KT 5SM BR BKN015 
     FM240800 VRB03KT 2SM BR BKN008 
     FM241200 VRB03KT 3SM BR BKN020 
     FM241500 25005KT P6SM BKN040
       
KLNS 231853Z COR 13004KT 9SM OVC011 22/19 A2982 RMK AO2 SLP096 T02170189
KLNS 231727Z 2318/2418 08005KT 6SM BR VCSH OVC006 
     FM232000 15005KT P6SM -SHRA VCTS BKN015CB 
     FM240300 25004KT P6SM VCSH BKN050 
     FM240700 VRB02KT 4SM BR BKN007
       
KABE 231851Z 05005KT 10SM OVC013 20/16 A2983 RMK AO2 RAE08 SLP099 P0000 T02000156
KABE 231737Z 2318/2418 08003KT P6SM BKN015 
     FM232100 08004KT P6SM BKN025 
     TEMPO 2321/2323 5SM -TSRA BKN030CB 
     FM232300 08003KT P6SM BKN035 
     TEMPO 2323/2403 5SM -TSRA BKN035CB 
     FM240300 VRB03KT 5SM BR BKN015 
     FM240800 VRB03KT P6SM BKN008 
     FM241200 18003KT P6SM BKN020 
     FM241500 25005KT P6SM BKN040
       
KPNE 231854Z VRB03KT 8SM OVC006 21/18 A2984 RMK AO2 SLP103 T02060178
KPNE 231737Z 2318/2418 05006KT 4SM BR VCSH OVC006 
     FM231900 06006KT 6SM BR VCSH OVC012 
     FM232000 07005KT P6SM VCTS OVC015CB 
     FM240100 08004KT 6SM -SHRA BKN015 
     FM240300 05004KT 5SM BR BKN008 
     PROB30 2403/2406 5SM -SHRA 
     FM240600 06003KT 2SM BR BKN005 
     FM241200 23004KT 3SM BR BKN008 
     FM241400 24005KT P6SM BKN012